Airfield :
LOGIN :

Register | Disclaimer

   EN    FR    IT 

 










Legend :    VFR   Marginal VFR   IFR   Intensive IFR   Very Intensive IFR
Visi :
Ceiling :
>= 8 km
>= 3000ft
5 to 8 km
1000 to 3000 ft
1500m to 5 km
500 to 1000 ft
800 to 1500m
200 to 500 ft
< 800m
< 200 ft
Symbols :   Thunderstorms  Fog  Heavy snow  Heavy precipitations  Wind > 20 kt
SIGMETs :     Misc.  Thunderstorms  Icing  Turbulence  Mountain Waves  Volcanic Ashes







- Airport Elevation : 12 ft
- IATA code : BCN


LEBL - Barcelone

CURRENT METAR :
  • 150030Z 00000KT 9999 FEW030 11/07 Q1008 NOSIG

EXPIRED METARs :
  • 150000Z 34005KT 9999 FEW030 11/07 Q1008 NOSIG
  • 142330Z 36003KT 340V050 9999 FEW030 11/07 Q1009 NOSIG
  • 142300Z VRB02KT 9999 FEW030 12/07 Q1009 NOSIG
  • 142230Z 30003KT 9999 FEW030 12/08 Q1010 NOSIG
  • 142200Z 33002KT 9999 FEW030 11/07 Q1010 NOSIG

TAF TAF LEBL
Valid from the 15 at 00:00 until the 16 at 00:00 UTC


142300Z 1500/1524 25012KT 9999 FEW030 TX16/1512Z TN07/1507Z
TEMPO 1500/1506 34005KT
TEMPO 1514/1518 VRB06KT
No reported NOTAMs for that airfield.



MET'MAP, your aeronautical weather chart ! - Copyright ORBIFLY December 2007 - Disclaimer

ORBIFLY MET'MAP TEAM :

Programming & Development : Alexandra Zaïnal
Concept & Development : Baudouin d'Aumeries
Co-Development & Prog : Marc-Olivier Méhu
Technical & hardware support : Manuel Goepfert

Contact : metmap@orbifly.com




SOURCES & CREDITS :

   NOAA